City Of Vicksburg — WDC2660 — position and weather

sailwx.info

Track history (hours):
 
Tides and Currents Weather Stations Pressure Air Temp Water Temp Dewpoint Dewpoint Depression Visibility Wind Speed Wind Dir Waves Ship Positions

City Of Vicksburg

Owner: Kirby Inland Marine LP, Houston, TX. More information available from US FCC via Universal Licensing System and Coast Guard Vessel Documentation Center.

Last reported at 2016-Nov-08 15:08 UTC. Time now 2016-Dec-09 07:50 UTC.
Position N 32°40' W 091°07'.
Warning: this ship's position is 30 days out of date.

Length 50 m; draft 2.9 m.

Type: . MMSI: 366996120.

Date/timePositionNaut miles runAvg speedWind from/ knotsBaromVisibWave heightAir tempDewpointWater temp
2016-Nov-08 15:08N 32°40' W 091°07'14 2.5
2016-Nov-08 09:33N 32°26' W 091°04'7 2.5
2016-Nov-08 06:33N 32°21' W 090°58'5 2.5
2016-Nov-08 04:33N 32°16' W 090°58'14 3.1
2016-Nov-08 00:11N 32°03' W 091°03'3 5.0
2016-Nov-07 23:33N 32°00' W 091°05'  
2016-Nov-05 07:25N 31°59' W 091°08'22 7.8
2016-Nov-05 04:33N 32°18' W 090°55'16 7.8
2016-Nov-05 02:33N 32°30' W 091°07'9 9.4
2016-Nov-05 01:34N 32°39' W 091°09'  
Track history (hours):
 
Tides and Currents Weather Stations Pressure Air Temp Water Temp Dewpoint Dewpoint Depression Visibility Wind Speed Wind Dir Waves Ship Positions

City Of Vicksburg

Owner: Kirby Inland Marine LP, Houston, TX. More information available from US FCC via Universal Licensing System and Coast Guard Vessel Documentation Center.

Last reported at 2016-Nov-08 15:08 UTC. Time now 2016-Dec-09 07:50 UTC.
Position N 32°40' W 091°07'.
Warning: this ship's position is 30 days out of date.

Length 50 m; draft 2.9 m.

Type: . MMSI: 366996120.

Date/timePositionNaut miles runAvg speedWind from/ knotsBaromVisibWave heightAir tempDewpointWater temp
2016-Nov-08 15:08N 32°40' W 091°07'14 2.5
2016-Nov-08 09:33N 32°26' W 091°04'7 2.5
2016-Nov-08 06:33N 32°21' W 090°58'5 2.5
2016-Nov-08 04:33N 32°16' W 090°58'14 3.1
2016-Nov-08 00:11N 32°03' W 091°03'3 5.0
2016-Nov-07 23:33N 32°00' W 091°05'  
2016-Nov-05 07:25N 31°59' W 091°08'22 7.8
2016-Nov-05 04:33N 32°18' W 090°55'16 7.8
2016-Nov-05 02:33N 32°30' W 091°07'9 9.4
2016-Nov-05 01:34N 32°39' W 091°09'  

Dump ship's entire track history